Flight Track Log - Related Links

Times and Time Zones

All times are in EDT time to prevent confusion due to time zone crossing. See the SWA1969 flight status page for this flight to view local times or setup timezone preferences in your user account.

Time Position Orientation Groundspeed Altitude Reporting Facility
EDT Latitude Longitude Course Direction KTS MPH feet Rate Location/Type
Wed 07:29:31 AM 32.8667 -96.8667 316° Northwest 139 160 2,100  Level Dallas / Fort Worth TRACON
Wed 07:31:38 AM 32.9667 -96.9833 316° Northwest 301 346 7,800 3,095 Climbing Dallas / Fort Worth TRACON
Wed 07:33:43 AM 33.1564 -97.0636 340° North 353 406 15,100 3,405 Climbing Fort Worth Center
Wed 07:34:43 AM 33.2567 -97.0806 352° North 394 453 18,300 3,000 Climbing Fort Worth Center
Wed 07:35:43 AM 33.3861 -97.1000 353° North 425 489 21,100 3,300 Climbing Fort Worth Center
Wed 07:36:43 AM 33.5114 -97.1044 358° North 437 503 24,900 2,950 Climbing Fort Worth Center
Wed 07:37:43 AM 33.6261 -97.0867 North 437 503 27,000 1,050 Climbing Fort Worth Center
Wed 07:38:43 AM 33.7472 -97.0736 North 427 491 27,000  Level Fort Worth Center
Wed 07:39:43 AM 33.8600 -97.0883 354° North 409 471 27,000 -50 Level Fort Worth Center
Wed 07:40:43 AM 33.9747 -97.1106 351° North 409 471 26,900 -1,000 Descending Fort Worth Center
Wed 07:41:43 AM 34.0875 -97.1325 351° North 409 471 25,000 -1,900 Descending Fort Worth Center
Wed 07:42:43 AM 34.1939 -97.1547 350° North 402 463 23,100 -1,950 Descending Fort Worth Center
Wed 07:43:43 AM 34.3044 -97.1772 350° North 402 463 21,100 -2,050 Descending Fort Worth Center
Wed 07:44:43 AM 34.4172 -97.1969 352° North 402 463 19,000 -2,150 Descending Fort Worth Center
Wed 07:45:43 AM 34.5342 -97.2194 351° North 407 468 16,800 -2,200 Descending Fort Worth Center
Wed 07:46:43 AM 34.6489 -97.2419 351° North 412 474 14,600 -2,050 Descending Fort Worth Center
Wed 07:47:43 AM 34.7617 -97.2619 352° North 412 474 12,700 -1,800 Descending Fort Worth Center
Wed 07:48:43 AM 34.8681 -97.2869 349° North 405 466 11,000 -1,000 Descending Fort Worth Center
Wed 07:49:43 AM 34.9558 -97.3425 333° Northwest 357 411 10,700 -700 Descending Fort Worth Center
Wed 07:50:43 AM 35.0119 -97.3933 323° Northwest 342 394 9,600 -1,120 Descending Fort Worth Center
Wed 07:50:58 AM 35.0392 -97.4211 320° Northwest 293 337 9,300 -1,800 Descending Fort Worth Center
Wed 07:51:43 AM 35.0767 -97.4617 318° Northwest 310 357 7,800 -2,262 Descending Fort Worth Center
Wed 07:51:59 AM 35.0933 -97.4819 315° West 260 299 7,000 -1,900 Descending Fort Worth Center
Wed 07:52:43 AM 35.1289 -97.5175 321° Northwest 272 313 5,900 -1,600 Descending Fort Worth Center
Wed 07:52:59 AM 35.1456 -97.5431 309° West 224 258 5,400 -800 Descending Fort Worth Center
Wed 07:53:43 AM 35.1706 -97.5711 317° Northwest 237 273 5,100 -492 Descending Fort Worth Center
Wed 07:54:00 AM 35.1831 -97.5836 321° Northwest 175 201 4,900 -900 Descending Fort Worth Center
Wed 07:54:43 AM 35.2100 -97.5939 343° North 193 222 4,200 -1,100 Descending Fort Worth Center
Wed 07:55:00 AM 35.2289 -97.5914 North 160 184 3,800 -1,100 Descending Fort Worth Center
Wed 07:55:43 AM 35.2558 -97.5942 355° North 160 184 3,100 -689 Descending Fort Worth Center
Wed 07:56:01 AM 35.2706 -97.5942 360° North 154 177 3,100 -200 Level Fort Worth Center
Wed 07:56:43 AM 35.2956 -97.5917 North 149 171 2,900 -393 Descending Fort Worth Center
Wed 07:57:02 AM 35.3081 -97.5942 351° North 123 142 2,700 -700 Descending Fort Worth Center
Wed 07:57:43 AM 35.3289 -97.5917 North 132 152 2,200 -700 Descending Fort Worth Center
Wed 07:58:02 AM 35.3436 -97.5942 352° North 124 143 2,000 -700 Descending Fort Worth Center
Wed 07:58:43 AM 35.3664 -97.5917 North 132 152 1,500 -475 Descending Fort Worth Center
Wed 07:59:43 AM 35.4061 -97.5919 360° North 132 152 1,200 -300 Descending Fort Worth Center
Wed 08:03:00 AM 35.3931 -97.6008 321° Northwest  Level Estimated
Wed 08:10:00 AM 35.3931 -97.6008 321° Northwest  Level Estimated

Login

Don't have an account? Register now (free) for customized features, flight alerts, and more!